createdAt,value
2023-04-14T00:00:04.900Z,6.40
2023-04-14T00:01:04.875Z,6.30
2023-04-14T00:02:04.964Z,7.90
2023-04-14T00:03:05.141Z,7.70
2023-04-14T00:04:05.128Z,5.90
2023-04-14T00:05:04.873Z,7.70
2023-04-14T00:06:04.842Z,6.10
2023-04-14T00:07:04.811Z,4.50
2023-04-14T00:08:04.816Z,6.80
2023-04-14T00:09:04.811Z,6.30
2023-04-14T00:10:04.764Z,7.00
2023-04-14T00:11:04.748Z,8.40
2023-04-14T00:12:04.806Z,8.20
2023-04-14T00:13:04.767Z,5.90
2023-04-14T00:14:04.699Z,9.80
2023-04-14T00:15:04.732Z,6.90
2023-04-14T00:16:04.734Z,6.00
2023-04-14T00:17:04.693Z,8.60
2023-04-14T00:18:04.767Z,5.90
2023-04-14T00:19:04.686Z,7.20
2023-04-14T00:20:04.641Z,6.50
2023-04-14T00:21:04.651Z,6.70
2023-04-14T00:22:04.632Z,10.50
2023-04-14T00:23:04.621Z,7.10
2023-04-14T00:24:04.593Z,5.60
2023-04-14T00:25:04.574Z,7.70
2023-04-14T00:26:04.581Z,8.70
2023-04-14T00:27:04.534Z,10.00
2023-04-14T00:28:04.572Z,10.00
2023-04-14T00:29:04.531Z,9.90
2023-04-14T00:30:04.525Z,9.20
2023-04-14T00:31:04.553Z,10.30
2023-04-14T00:32:04.485Z,9.00
2023-04-14T00:33:04.516Z,16.20
2023-04-14T00:34:04.459Z,9.40
2023-04-14T00:35:04.427Z,10.80
2023-04-14T00:36:04.433Z,11.70
2023-04-14T00:37:04.406Z,11.80
2023-04-14T00:38:04.427Z,11.60
2023-04-14T00:39:04.411Z,10.30
2023-04-14T00:40:04.371Z,11.50
2023-04-14T00:41:04.354Z,11.50
2023-04-14T00:42:04.364Z,9.70
2023-04-14T00:43:04.361Z,13.60
2023-04-14T00:44:04.315Z,14.60
2023-04-14T00:45:04.310Z,15.30
2023-04-14T00:46:04.300Z,14.10
2023-04-14T00:47:04.275Z,11.20
2023-04-14T00:48:04.294Z,11.90
2023-04-14T00:49:04.270Z,16.70
2023-04-14T00:50:04.242Z,11.60
2023-04-14T00:51:04.255Z,10.40
2023-04-14T00:52:04.254Z,11.00
2023-04-14T00:53:04.241Z,11.40
2023-04-14T00:54:04.224Z,12.30
2023-04-14T00:55:04.225Z,10.00
2023-04-14T00:56:04.165Z,10.00
2023-04-14T00:57:04.144Z,10.50
2023-04-14T00:58:04.164Z,10.20
2023-04-14T00:59:04.153Z,11.50
2023-04-14T01:00:04.112Z,14.90
2023-04-14T01:01:04.209Z,9.40
2023-04-14T01:02:04.226Z,11.10
2023-04-14T01:03:04.307Z,11.20
2023-04-14T01:04:04.165Z,10.80
2023-04-14T01:05:04.176Z,9.30
2023-04-14T01:06:04.069Z,12.00
2023-04-14T01:07:04.017Z,7.70
2023-04-14T01:08:04.031Z,11.10
2023-04-14T01:09:04.009Z,10.80
2023-04-14T01:10:03.976Z,10.30
2023-04-14T01:11:04.006Z,11.70
2023-04-14T01:12:03.989Z,11.60
2023-04-14T01:13:03.943Z,11.90
2023-04-14T01:14:03.979Z,7.90
2023-04-14T01:15:03.921Z,10.90
2023-04-14T01:16:03.940Z,10.00
2023-04-14T01:17:04.660Z,13.60
2023-04-14T01:18:03.962Z,11.00
2023-04-14T01:19:03.874Z,8.50
2023-04-14T01:20:03.882Z,10.60
2023-04-14T01:21:03.880Z,9.40
2023-04-14T01:22:03.832Z,8.40
2023-04-14T01:23:03.833Z,10.40
2023-04-14T01:24:03.822Z,7.80
2023-04-14T01:25:03.803Z,10.10
2023-04-14T01:26:03.822Z,9.70
2023-04-14T01:27:03.753Z,9.90
2023-04-14T01:28:03.753Z,9.80
2023-04-14T01:29:03.780Z,10.20
2023-04-14T01:30:03.720Z,12.40
2023-04-14T01:31:03.735Z,9.60
2023-04-14T01:32:03.695Z,11.30
2023-04-14T01:33:03.735Z,9.90
2023-04-14T01:34:03.716Z,11.70
2023-04-14T01:35:03.646Z,9.40
2023-04-14T01:36:03.652Z,9.70
2023-04-14T01:37:03.625Z,12.90
2023-04-14T01:38:03.633Z,12.50
2023-04-14T01:39:03.606Z,11.50
2023-04-14T01:40:03.625Z,11.30
2023-04-14T01:41:03.650Z,11.30
2023-04-14T01:42:03.569Z,15.00
2023-04-14T01:43:03.552Z,11.20
2023-04-14T01:44:03.583Z,10.80
2023-04-14T01:45:03.538Z,9.80
2023-04-14T01:46:03.576Z,9.50
2023-04-14T01:47:03.502Z,12.90
2023-04-14T01:48:03.592Z,13.00
2023-04-14T01:49:03.690Z,19.90
2023-04-14T01:50:03.461Z,14.90
2023-04-14T01:51:03.499Z,13.60
2023-04-14T01:52:03.437Z,15.40
2023-04-14T01:53:03.416Z,11.80
2023-04-14T01:54:03.457Z,12.40
2023-04-14T01:55:03.409Z,12.10
2023-04-14T01:56:03.392Z,13.10
2023-04-14T01:57:03.404Z,16.50
2023-04-14T01:58:03.374Z,12.70
2023-04-14T01:59:03.362Z,12.70
2023-04-14T02:00:03.362Z,12.00
2023-04-14T02:01:03.352Z,13.10
2023-04-14T02:02:03.342Z,11.30
2023-04-14T02:03:03.462Z,9.90
2023-04-14T02:04:03.434Z,11.20
2023-04-14T02:05:03.263Z,11.10
2023-04-14T02:06:03.250Z,10.30
2023-04-14T02:07:03.259Z,12.50
2023-04-14T02:08:03.232Z,9.70
2023-04-14T02:09:03.223Z,11.60
2023-04-14T02:10:03.266Z,10.50
2023-04-14T02:11:03.178Z,8.40
2023-04-14T02:12:03.195Z,7.90
2023-04-14T02:13:03.188Z,8.50
2023-04-14T02:14:03.169Z,11.60
2023-04-14T02:15:03.125Z,8.00
2023-04-14T02:16:03.175Z,9.80
2023-04-14T02:17:03.240Z,6.20
2023-04-14T02:18:03.112Z,9.10
2023-04-14T02:19:03.226Z,8.90
2023-04-14T02:20:03.091Z,10.40
2023-04-14T02:21:03.045Z,9.30
2023-04-14T02:22:03.030Z,8.00
2023-04-14T02:23:03.060Z,7.80
2023-04-14T02:24:03.037Z,9.60
2023-04-14T02:25:03.026Z,8.60
2023-04-14T02:26:03.015Z,10.00
2023-04-14T02:27:02.968Z,8.40
2023-04-14T02:28:03.068Z,7.50
2023-04-14T02:29:03.183Z,6.90
2023-04-14T02:30:02.940Z,7.80
2023-04-14T02:31:02.997Z,7.50
2023-04-14T02:32:02.932Z,8.40
2023-04-14T02:33:02.942Z,8.30
2023-04-14T02:34:03.039Z,6.20
2023-04-14T02:35:02.887Z,5.50
2023-04-14T02:36:02.871Z,7.80
2023-04-14T02:37:02.848Z,10.40
2023-04-14T02:38:02.854Z,8.00
2023-04-14T02:39:03.113Z,7.40
2023-04-14T02:40:02.807Z,8.80
2023-04-14T02:41:02.837Z,11.50
2023-04-14T02:42:02.777Z,7.90
2023-04-14T02:43:02.777Z,8.20
2023-04-14T02:44:03.251Z,10.20
2023-04-14T02:45:02.762Z,10.40
2023-04-14T02:46:02.761Z,10.00
2023-04-14T02:47:02.759Z,8.60
2023-04-14T02:48:02.730Z,9.40
2023-04-14T02:49:02.753Z,7.70
2023-04-14T02:50:02.695Z,8.60
2023-04-14T02:51:02.712Z,8.90
2023-04-14T02:52:02.654Z,10.40
2023-04-14T02:53:02.647Z,9.00
2023-04-14T02:54:02.637Z,7.30
2023-04-14T02:55:02.640Z,7.80
2023-04-14T02:56:02.596Z,9.10
2023-04-14T02:57:02.654Z,9.90
2023-04-14T02:58:02.593Z,8.20
2023-04-14T02:59:02.818Z,8.30
2023-04-14T03:00:02.631Z,9.30
2023-04-14T03:01:02.546Z,8.20
2023-04-14T03:02:02.693Z,8.30
2023-04-14T03:03:02.589Z,7.90
2023-04-14T03:04:02.615Z,6.40
2023-04-14T03:05:02.500Z,7.00
2023-04-14T03:06:02.473Z,6.10
2023-04-14T03:07:02.472Z,6.50
2023-04-14T03:08:02.451Z,6.80
2023-04-14T03:09:02.806Z,6.70
2023-04-14T03:10:02.479Z,10.50
2023-04-14T03:11:02.425Z,7.70
2023-04-14T03:12:02.398Z,4.90
2023-04-14T03:13:02.390Z,6.00
2023-04-14T03:14:02.398Z,6.20
2023-04-14T03:15:02.383Z,7.00
2023-04-14T03:16:02.348Z,7.80
2023-04-14T03:17:02.428Z,6.90
2023-04-14T03:18:02.356Z,7.40
2023-04-14T03:19:02.420Z,9.50
2023-04-14T03:20:02.327Z,8.60
2023-04-14T03:21:02.274Z,8.10
2023-04-14T03:22:02.271Z,7.00
2023-04-14T03:23:02.288Z,7.20
2023-04-14T03:24:02.252Z,9.10
2023-04-14T03:25:02.246Z,4.90
2023-04-14T03:26:02.222Z,8.10
2023-04-14T03:27:02.192Z,6.30
2023-04-14T03:28:02.242Z,8.20
2023-04-14T03:29:02.372Z,8.10
2023-04-14T03:30:02.205Z,5.20
2023-04-14T03:31:02.206Z,8.20
2023-04-14T03:32:02.235Z,6.70
2023-04-14T03:33:02.255Z,9.20
2023-04-14T03:34:02.144Z,5.90
2023-04-14T03:35:02.169Z,6.20
2023-04-14T03:36:02.078Z,8.10
2023-04-14T03:37:02.103Z,5.80
2023-04-14T03:38:02.073Z,4.60
2023-04-14T03:39:02.284Z,9.70
2023-04-14T03:40:02.138Z,6.10
2023-04-14T03:41:02.082Z,5.30
2023-04-14T03:42:02.081Z,5.80
2023-04-14T03:43:02.009Z,7.00
2023-04-14T03:44:01.992Z,8.90
2023-04-14T03:45:01.981Z,7.50
2023-04-14T03:46:01.947Z,6.00
2023-04-14T03:47:02.058Z,6.10
2023-04-14T03:48:02.082Z,7.60
2023-04-14T03:49:02.003Z,6.10
2023-04-14T03:50:01.934Z,11.80
2023-04-14T03:51:01.907Z,7.90
2023-04-14T03:52:01.932Z,7.20
2023-04-14T03:53:01.869Z,5.00
2023-04-14T03:54:01.876Z,6.60
2023-04-14T03:55:01.945Z,8.60
2023-04-14T03:56:01.847Z,7.40
2023-04-14T03:57:01.842Z,5.90
2023-04-14T03:58:01.840Z,5.10
2023-04-14T03:59:01.922Z,8.20
2023-04-14T04:00:01.894Z,6.40
2023-04-14T04:01:01.782Z,6.70
2023-04-14T04:02:01.925Z,6.50
2023-04-14T04:03:01.947Z,6.30
2023-04-14T04:04:01.778Z,4.70
2023-04-14T04:05:01.949Z,8.80
2023-04-14T04:06:01.768Z,9.10
2023-04-14T04:07:01.690Z,8.40
2023-04-14T04:08:01.739Z,6.70
2023-04-14T04:09:01.905Z,4.00
2023-04-14T04:10:01.786Z,5.30
2023-04-14T04:11:01.658Z,8.40
2023-04-14T04:12:01.602Z,6.00
2023-04-14T04:13:01.668Z,4.90
2023-04-14T04:14:01.629Z,5.30
2023-04-14T04:15:01.592Z,4.60
2023-04-14T04:16:01.583Z,7.20
2023-04-14T04:17:01.662Z,6.00
2023-04-14T04:18:01.554Z,7.70
2023-04-14T04:19:01.830Z,5.10
2023-04-14T04:20:01.518Z,5.80
2023-04-14T04:21:01.460Z,6.20
2023-04-14T04:22:01.556Z,6.20
2023-04-14T04:23:01.433Z,7.20
2023-04-14T04:24:01.432Z,10.00
2023-04-14T04:25:01.466Z,7.70
2023-04-14T04:26:01.406Z,6.70
2023-04-14T04:27:01.403Z,6.90
2023-04-14T04:28:01.439Z,8.10
2023-04-14T04:29:01.655Z,6.10
2023-04-14T04:30:01.355Z,8.70
2023-04-14T04:31:01.330Z,8.60
2023-04-14T04:32:01.358Z,6.60
2023-04-14T04:33:01.360Z,10.40
2023-04-14T04:34:01.313Z,6.60
2023-04-14T04:35:01.331Z,7.20
2023-04-14T04:36:01.282Z,7.90
2023-04-14T04:37:01.283Z,6.00
2023-04-14T04:38:01.323Z,8.10
2023-04-14T04:39:01.556Z,8.10
2023-04-14T04:40:01.240Z,9.10
2023-04-14T04:41:01.210Z,5.00
2023-04-14T04:42:01.253Z,9.20
2023-04-14T04:43:01.183Z,8.80
2023-04-14T04:44:01.171Z,8.30
2023-04-14T04:45:01.183Z,9.90
2023-04-14T04:46:01.186Z,7.20
2023-04-14T04:47:01.128Z,9.60
2023-04-14T04:48:01.185Z,9.80
2023-04-14T04:49:01.221Z,7.60
2023-04-14T04:50:01.128Z,8.70
2023-04-14T04:51:01.150Z,6.70
2023-04-14T04:52:01.066Z,7.50
2023-04-14T04:53:01.053Z,7.40
2023-04-14T04:54:01.137Z,6.40
2023-04-14T04:55:01.047Z,5.80
2023-04-14T04:56:01.023Z,6.80
2023-04-14T04:57:01.061Z,6.90
2023-04-14T04:58:00.997Z,7.80
2023-04-14T04:59:01.207Z,10.50
2023-04-14T05:00:00.994Z,5.50
2023-04-14T05:01:01.008Z,6.70
2023-04-14T05:02:01.068Z,8.50
2023-04-14T05:03:04.342Z,11.10
2023-04-14T05:04:00.973Z,9.40
2023-04-14T05:05:01.022Z,9.90
2023-04-14T05:06:00.917Z,12.80
2023-04-14T05:07:00.915Z,10.00
2023-04-14T05:08:00.883Z,9.90
2023-04-14T05:09:00.996Z,9.80
2023-04-14T05:10:00.937Z,10.10
2023-04-14T05:11:00.835Z,9.20
2023-04-14T05:12:00.819Z,6.90
2023-04-14T05:13:00.807Z,10.20
2023-04-14T05:14:00.793Z,10.90
2023-04-14T05:15:00.810Z,8.00
2023-04-14T05:16:00.821Z,9.00
2023-04-14T05:17:00.790Z,8.30
2023-04-14T05:18:00.759Z,10.20
2023-04-14T05:19:01.059Z,8.60
2023-04-14T05:20:00.806Z,9.20
2023-04-14T05:21:00.711Z,10.70
2023-04-14T05:22:00.685Z,7.40
2023-04-14T05:23:00.757Z,10.80
2023-04-14T05:24:00.688Z,10.40
2023-04-14T05:25:00.688Z,11.50
2023-04-14T05:26:16.299Z,10.50
2023-04-14T05:27:13.891Z,7.90
2023-04-14T05:28:00.627Z,9.20
2023-04-14T05:29:01.027Z,9.70
2023-04-14T05:30:00.649Z,10.00
2023-04-14T05:31:01.354Z,10.00
2023-04-14T05:32:00.557Z,9.30
2023-04-14T05:33:00.640Z,8.60
2023-04-14T05:34:00.827Z,10.20
2023-04-14T05:35:00.581Z,8.70
2023-04-14T05:36:00.575Z,8.70
2023-04-14T05:37:00.505Z,8.00
2023-04-14T05:38:00.484Z,10.50
2023-04-14T05:39:00.499Z,12.40
2023-04-14T05:40:00.572Z,8.50
2023-04-14T05:41:00.487Z,8.00
2023-04-14T05:42:00.448Z,8.50
2023-04-14T05:43:00.491Z,8.50
2023-04-14T05:44:00.807Z,7.50
2023-04-14T05:45:00.423Z,7.90
2023-04-14T05:46:00.399Z,10.50
2023-04-14T05:47:00.559Z,8.70
2023-04-14T05:48:00.427Z,8.90
2023-04-14T05:49:00.736Z,10.90
2023-04-14T05:50:00.346Z,13.20
2023-04-14T05:51:00.333Z,11.00
2023-04-14T05:52:00.352Z,11.30
2023-04-14T05:53:00.292Z,9.60
2023-04-14T05:54:00.639Z,6.60
2023-04-14T05:55:00.297Z,7.90
2023-04-14T05:56:00.254Z,12.50
2023-04-14T05:57:00.245Z,8.50
2023-04-14T05:58:00.257Z,14.60
2023-04-14T05:59:00.246Z,11.40
2023-04-14T06:00:00.201Z,10.00
2023-04-14T06:01:00.203Z,11.50
2023-04-14T06:02:00.247Z,10.30
2023-04-14T06:03:00.427Z,11.90
2023-04-14T06:04:00.869Z,12.70
2023-04-14T06:05:00.378Z,13.30
2023-04-14T06:06:00.147Z,13.00
2023-04-14T06:07:00.133Z,14.80
2023-04-14T06:08:00.092Z,13.10
2023-04-14T06:09:00.328Z,10.80
2023-04-14T06:10:00.106Z,10.20
2023-04-14T06:11:00.081Z,9.50
2023-04-14T06:12:00.039Z,10.50
2023-04-14T06:13:00.094Z,10.30
2023-04-14T06:14:00.153Z,9.80
2023-04-14T06:15:00.024Z,6.20
2023-04-14T06:16:00.036Z,8.10
2023-04-14T06:17:00.059Z,6.30
2023-04-14T06:18:00.015Z,8.80
2023-04-14T06:19:00.193Z,12.30
2023-04-14T06:19:59.953Z,6.00
2023-04-14T06:20:59.936Z,8.50
2023-04-14T06:21:59.931Z,8.60
2023-04-14T06:22:59.952Z,9.00
2023-04-14T06:23:59.890Z,10.40
2023-04-14T06:24:59.902Z,10.60
2023-04-14T06:25:59.921Z,9.00
2023-04-14T06:26:59.859Z,9.10
2023-04-14T06:27:59.831Z,8.00
2023-04-14T06:29:00.069Z,9.90
2023-04-14T06:29:59.816Z,12.30
2023-04-14T06:30:59.793Z,10.10
2023-04-14T06:31:59.833Z,11.70
2023-04-14T06:32:59.824Z,11.30
2023-04-14T06:33:59.757Z,11.80
2023-04-14T06:34:59.766Z,11.10
2023-04-14T06:35:59.748Z,10.10
2023-04-14T06:36:59.718Z,11.30
2023-04-14T06:37:59.698Z,12.50
2023-04-14T06:39:00.010Z,12.60
2023-04-14T06:39:59.692Z,12.10
2023-04-14T06:40:59.678Z,9.20
2023-04-14T06:41:59.680Z,9.70
2023-04-14T06:42:59.671Z,9.60
2023-04-14T06:43:59.619Z,13.00
2023-04-14T06:44:59.678Z,12.20
2023-04-14T06:45:59.646Z,11.00
2023-04-14T06:46:59.587Z,10.80
2023-04-14T06:47:59.647Z,12.10
2023-04-14T06:48:59.921Z,8.40
2023-04-14T06:49:59.578Z,11.50
2023-04-14T06:50:59.572Z,9.50
2023-04-14T06:51:59.524Z,8.70
2023-04-14T06:52:59.521Z,9.10
2023-04-14T06:53:59.665Z,8.50
2023-04-14T06:54:59.528Z,6.20
2023-04-14T06:55:59.889Z,8.00
2023-04-14T06:57:00.726Z,6.50
2023-04-14T06:57:59.456Z,7.60
2023-04-14T06:58:59.450Z,6.30
2023-04-14T06:59:59.450Z,8.60
2023-04-14T07:00:59.516Z,7.50
2023-04-14T07:01:59.439Z,8.20
2023-04-14T07:02:59.440Z,6.30
2023-04-14T07:03:59.754Z,8.20
2023-04-14T07:04:59.536Z,9.00
2023-04-14T07:05:59.349Z,11.40
2023-04-14T07:06:59.334Z,12.00
2023-04-14T07:07:59.346Z,7.60
2023-04-14T07:08:59.318Z,10.00
2023-04-14T07:09:59.334Z,6.30
2023-04-14T07:10:59.318Z,6.30
2023-04-14T07:11:59.274Z,7.20
2023-04-14T07:12:59.245Z,7.30
2023-04-14T07:13:59.411Z,9.00
2023-04-14T07:14:59.242Z,8.50
2023-04-14T07:15:59.309Z,8.40
2023-04-14T07:16:59.260Z,6.60
2023-04-14T07:18:00.030Z,6.40
2023-04-14T07:18:59.162Z,5.20
2023-04-14T07:19:59.205Z,6.70
2023-04-14T07:20:59.155Z,7.80
2023-04-14T07:21:59.127Z,6.00
2023-04-14T07:22:59.150Z,7.00
2023-04-14T07:23:59.321Z,7.50
2023-04-14T07:24:59.091Z,7.10
2023-04-14T07:25:59.111Z,11.50
2023-04-14T07:26:59.075Z,6.50
2023-04-14T07:28:03.684Z,9.30
2023-04-14T07:28:59.064Z,7.50
2023-04-14T07:29:59.034Z,7.20
2023-04-14T07:30:59.118Z,7.60
2023-04-14T07:31:59.028Z,7.00
2023-04-14T07:32:59.064Z,8.30
2023-04-14T07:33:59.174Z,8.30
2023-04-14T07:34:59.364Z,7.80
2023-04-14T07:36:03.588Z,6.10
2023-04-14T07:36:58.959Z,6.70
2023-04-14T07:37:58.920Z,9.20
2023-04-14T07:38:58.969Z,8.90
2023-04-14T07:39:58.905Z,8.00
2023-04-14T07:40:58.878Z,8.10
2023-04-14T07:41:58.876Z,8.20
2023-04-14T07:42:58.868Z,7.60
2023-04-14T07:43:59.142Z,7.50
2023-04-14T07:44:58.863Z,7.10
2023-04-14T07:45:58.921Z,8.10
2023-04-14T07:46:58.828Z,9.70
2023-04-14T07:47:58.813Z,8.00
2023-04-14T07:48:58.784Z,9.20
2023-04-14T07:49:58.785Z,7.90
2023-04-14T07:50:58.748Z,7.70
2023-04-14T07:51:58.758Z,6.10
2023-04-14T07:52:58.728Z,10.20
2023-04-14T07:53:58.854Z,8.50
2023-04-14T07:54:58.709Z,7.60
2023-04-14T07:55:58.693Z,7.00
2023-04-14T07:56:58.666Z,9.10
2023-04-14T07:57:58.656Z,6.50
2023-04-14T07:58:58.959Z,8.30
2023-04-14T07:59:58.650Z,9.40
2023-04-14T08:00:58.671Z,6.90
2023-04-14T08:01:58.722Z,7.40
2023-04-14T08:02:58.690Z,7.40
2023-04-14T08:03:58.799Z,7.80
2023-04-14T08:04:58.653Z,5.70
2023-04-14T08:05:58.588Z,7.80
2023-04-14T08:06:58.537Z,6.80
2023-04-14T08:07:58.554Z,7.70
2023-04-14T08:08:58.807Z,7.20
2023-04-14T08:09:58.509Z,4.30
2023-04-14T08:10:58.524Z,5.20
2023-04-14T08:11:58.472Z,7.50
2023-04-14T08:12:58.460Z,9.20
2023-04-14T08:13:58.490Z,6.80
2023-04-14T08:14:58.443Z,7.90
2023-04-14T08:15:58.530Z,9.80
2023-04-14T08:16:58.413Z,7.40
2023-04-14T08:17:58.447Z,9.00
2023-04-14T08:18:58.501Z,7.70
2023-04-14T08:19:58.376Z,6.70
2023-04-14T08:20:58.379Z,7.20
2023-04-14T08:21:58.376Z,5.90
2023-04-14T08:22:58.325Z,5.20
2023-04-14T08:23:58.327Z,6.90
2023-04-14T08:24:58.317Z,9.50
2023-04-14T08:25:58.329Z,7.70
2023-04-14T08:26:58.277Z,4.90
2023-04-14T08:27:58.299Z,8.70
2023-04-14T08:28:58.271Z,6.60
2023-04-14T08:29:58.231Z,5.90
2023-04-14T08:30:58.262Z,8.10
2023-04-14T08:31:58.218Z,7.50
2023-04-14T08:32:58.965Z,5.20
2023-04-14T08:33:58.211Z,8.30
2023-04-14T08:35:38.042Z,7.50
2023-04-14T08:35:59.893Z,7.40
2023-04-14T08:36:58.179Z,6.80
2023-04-14T08:37:58.130Z,7.80
2023-04-14T08:38:58.443Z,8.50
2023-04-14T08:39:58.129Z,7.70
2023-04-14T08:40:58.123Z,6.70
2023-04-14T08:41:58.097Z,6.10
2023-04-14T08:42:58.089Z,9.40
2023-04-14T08:43:58.048Z,5.80
2023-04-14T08:44:58.067Z,7.00
2023-04-14T08:45:58.082Z,6.80
2023-04-14T08:46:58.014Z,7.00
2023-04-14T08:47:58.052Z,6.30
2023-04-14T08:48:58.064Z,6.80
2023-04-14T08:49:58.011Z,7.10
2023-04-14T08:50:57.973Z,6.10
2023-04-14T08:51:57.990Z,7.10
2023-04-14T08:52:57.942Z,7.40
2023-04-14T08:53:57.920Z,7.60
2023-04-14T08:54:57.926Z,10.80
2023-04-14T08:55:58.577Z,7.70
2023-04-14T08:56:57.884Z,8.00
2023-04-14T08:57:57.918Z,8.70
2023-04-14T08:58:57.904Z,7.30
2023-04-14T08:59:57.843Z,7.30
2023-04-14T09:00:58.017Z,7.60
2023-04-14T09:01:57.984Z,9.10
2023-04-14T09:02:57.963Z,7.80
2023-04-14T09:03:58.245Z,6.60
2023-04-14T09:04:58.021Z,6.20
2023-04-14T09:05:57.781Z,5.90
2023-04-14T09:06:57.791Z,7.30
2023-04-14T09:07:57.737Z,6.30
2023-04-14T09:08:57.718Z,8.00
2023-04-14T09:09:57.778Z,8.10
2023-04-14T09:10:57.697Z,5.60
2023-04-14T09:11:57.736Z,8.10
2023-04-14T09:12:57.714Z,7.10
2023-04-14T09:13:57.653Z,7.80
2023-04-14T09:14:57.673Z,5.90
2023-04-14T09:15:57.689Z,7.20
2023-04-14T09:16:57.680Z,6.40
2023-04-14T09:17:57.667Z,4.90
2023-04-14T09:19:00.042Z,5.90
2023-04-14T09:20:36.348Z,5.70
2023-04-14T09:21:49.361Z,7.00
2023-04-14T09:21:58.245Z,5.60
2023-04-14T09:22:57.565Z,5.30
2023-04-14T09:23:57.536Z,7.90
2023-04-14T09:24:57.519Z,6.80
2023-04-14T09:25:57.603Z,7.40
2023-04-14T09:26:57.658Z,4.40
2023-04-14T09:27:57.496Z,6.30
2023-04-14T09:28:57.512Z,8.70
2023-04-14T09:29:57.475Z,6.20
2023-04-14T09:30:57.506Z,6.70
2023-04-14T09:31:57.514Z,4.70
2023-04-14T09:32:57.533Z,6.30
2023-04-14T09:33:57.472Z,5.70
2023-04-14T09:34:58.552Z,7.80
2023-04-14T09:35:57.476Z,5.10
2023-04-14T09:36:57.353Z,5.60
2023-04-14T09:37:57.339Z,5.80
2023-04-14T09:38:57.322Z,4.40
2023-04-14T09:39:57.365Z,6.90
2023-04-14T09:40:57.335Z,5.50
2023-04-14T09:41:57.290Z,3.90
2023-04-14T09:42:57.278Z,7.60
2023-04-14T09:43:57.290Z,7.20
2023-04-14T09:44:57.243Z,5.40
2023-04-14T09:45:57.273Z,5.30
2023-04-14T09:46:57.269Z,6.60
2023-04-14T09:47:57.302Z,5.40
2023-04-14T09:48:57.195Z,8.10
2023-04-14T09:49:57.227Z,4.30
2023-04-14T09:50:57.183Z,5.10
2023-04-14T09:51:57.200Z,4.00
2023-04-14T09:52:57.159Z,7.90
2023-04-14T09:53:57.187Z,6.10
2023-04-14T09:54:57.149Z,5.40
2023-04-14T09:55:57.164Z,5.70
2023-04-14T09:56:57.083Z,11.30
2023-04-14T09:57:57.094Z,8.80
2023-04-14T09:58:57.052Z,6.00
2023-04-14T09:59:57.054Z,5.80
2023-04-14T10:00:57.090Z,5.60
2023-04-14T10:01:57.164Z,6.50
2023-04-14T10:02:57.114Z,6.50
2023-04-14T10:03:58.532Z,5.20
2023-04-14T10:04:57.010Z,4.80
2023-04-14T10:05:57.046Z,5.00
2023-04-14T10:06:57.001Z,7.50
2023-04-14T10:07:56.944Z,5.70
2023-04-14T10:08:56.950Z,3.80
2023-04-14T10:09:56.907Z,5.30
2023-04-14T10:10:56.896Z,5.30
2023-04-14T10:11:56.933Z,6.00
2023-04-14T10:12:56.886Z,5.10
2023-04-14T10:13:56.856Z,5.80
2023-04-14T10:14:56.859Z,5.20
2023-04-14T10:15:56.872Z,8.00
2023-04-14T10:16:56.843Z,5.40
2023-04-14T10:17:56.871Z,4.60
2023-04-14T10:18:56.801Z,7.00
2023-04-14T10:19:56.778Z,5.70
2023-04-14T10:20:56.754Z,6.10
2023-04-14T10:21:56.810Z,7.40
2023-04-14T10:22:56.748Z,5.10
2023-04-14T10:23:56.723Z,7.40
2023-04-14T10:24:56.706Z,5.00
2023-04-14T10:25:56.720Z,4.70
2023-04-14T10:26:56.691Z,5.90
2023-04-14T10:27:56.665Z,7.90
2023-04-14T10:28:56.689Z,5.90
2023-04-14T10:29:56.642Z,6.70
2023-04-14T10:30:56.629Z,7.40
2023-04-14T10:31:56.718Z,4.50
2023-04-14T10:32:56.620Z,4.80
2023-04-14T10:33:56.594Z,4.50
2023-04-14T10:34:56.630Z,5.40
2023-04-14T10:35:56.575Z,6.90
2023-04-14T10:36:56.546Z,4.40
2023-04-14T10:37:56.560Z,5.40
2023-04-14T10:38:56.512Z,5.50
2023-04-14T10:39:56.521Z,5.70
2023-04-14T10:40:56.538Z,5.80
2023-04-14T10:41:56.503Z,4.20
2023-04-14T10:42:56.594Z,6.00
2023-04-14T10:43:56.456Z,4.40
2023-04-14T10:44:56.461Z,6.70
2023-04-14T10:45:56.443Z,7.70
2023-04-14T10:46:56.823Z,5.40
2023-04-14T10:47:56.504Z,7.00
2023-04-14T10:48:56.397Z,5.40
2023-04-14T10:49:56.372Z,6.70
2023-04-14T10:50:56.405Z,4.60
2023-04-14T10:51:56.365Z,6.10
2023-04-14T10:52:56.408Z,6.40
2023-04-14T10:53:57.739Z,3.30
2023-04-14T10:54:56.364Z,6.70
2023-04-14T10:55:56.403Z,6.80
2023-04-14T10:56:56.329Z,4.10
2023-04-14T10:57:56.322Z,4.20
2023-04-14T10:58:56.341Z,3.10
2023-04-14T10:59:56.263Z,4.10
2023-04-14T11:00:56.272Z,4.20
2023-04-14T11:01:56.289Z,3.50
2023-04-14T11:02:57.690Z,4.00
2023-04-14T11:03:56.520Z,5.00
2023-04-14T11:04:56.203Z,4.30
2023-04-14T11:05:56.210Z,3.40
2023-04-14T11:06:56.169Z,4.10
2023-04-14T11:07:56.144Z,6.00
2023-04-14T11:08:56.201Z,7.30
2023-04-14T11:09:56.118Z,5.60
2023-04-14T11:10:56.095Z,3.60
2023-04-14T11:11:56.113Z,3.40
2023-04-14T11:12:56.112Z,3.70
2023-04-14T11:13:56.056Z,5.40
2023-04-14T11:14:56.045Z,4.40
2023-04-14T11:15:56.089Z,4.90
2023-04-14T11:17:04.133Z,4.20
2023-04-14T11:17:56.063Z,5.00
2023-04-14T11:18:55.974Z,5.60
2023-04-14T11:19:56.016Z,5.20
2023-04-14T11:20:55.952Z,6.80
2023-04-14T11:21:55.974Z,4.00
2023-04-14T11:22:55.947Z,4.80
2023-04-14T11:23:55.924Z,6.30
2023-04-14T11:24:55.908Z,5.20
2023-04-14T11:25:55.930Z,6.50
2023-04-14T11:26:55.892Z,5.00
2023-04-14T11:27:55.893Z,5.20
2023-04-14T11:28:55.890Z,4.60
2023-04-14T11:29:55.866Z,4.90
2023-04-14T11:30:55.825Z,4.90
2023-04-14T11:31:55.926Z,3.20
2023-04-14T11:32:55.879Z,4.20
2023-04-14T11:33:55.800Z,4.50
2023-04-14T11:34:55.798Z,4.60
2023-04-14T11:35:55.761Z,5.30
2023-04-14T11:36:55.757Z,4.30
2023-04-14T11:37:55.838Z,3.90
2023-04-14T11:38:55.728Z,5.10
2023-04-14T11:39:55.719Z,4.60
2023-04-14T11:40:55.718Z,2.70
2023-04-14T11:41:55.684Z,4.40
2023-04-14T11:43:03.520Z,3.30
2023-04-14T11:43:55.656Z,4.30
2023-04-14T11:44:55.634Z,3.90
2023-04-14T11:45:55.642Z,4.90
2023-04-14T11:46:55.617Z,4.40
2023-04-14T11:47:55.669Z,2.90
2023-04-14T11:48:55.585Z,4.00
2023-04-14T11:49:55.638Z,4.70
2023-04-14T11:50:55.566Z,4.30
2023-04-14T11:51:55.578Z,4.50
2023-04-14T11:52:55.549Z,2.60
2023-04-14T11:53:55.526Z,2.10
2023-04-14T11:54:55.556Z,4.50
2023-04-14T11:55:55.499Z,4.40
2023-04-14T11:56:55.485Z,3.20
2023-04-14T11:57:55.544Z,2.90
2023-04-14T11:58:55.454Z,5.40
2023-04-14T11:59:55.450Z,2.40
2023-04-14T12:00:56.449Z,2.80
2023-04-14T12:01:55.508Z,3.30
2023-04-14T12:02:55.601Z,5.30
2023-04-14T12:03:55.541Z,3.60
2023-04-14T12:04:56.352Z,3.60
2023-04-14T12:05:55.375Z,3.80
2023-04-14T12:06:55.359Z,2.30
2023-04-14T12:08:01.372Z,4.80
2023-04-14T12:08:55.327Z,3.70
2023-04-14T12:09:55.301Z,3.10
2023-04-14T12:10:55.289Z,5.80
2023-04-14T12:11:55.314Z,2.50
2023-04-14T12:12:55.296Z,3.40
2023-04-14T12:13:55.275Z,3.70
2023-04-14T12:14:55.243Z,5.00
2023-04-14T12:15:55.264Z,3.60
2023-04-14T12:16:55.235Z,3.00
2023-04-14T12:17:55.769Z,4.90
2023-04-14T12:18:55.215Z,4.50
2023-04-14T12:19:55.180Z,2.70
2023-04-14T12:20:55.185Z,5.00
2023-04-14T12:21:55.154Z,4.30
2023-04-14T12:22:55.152Z,2.90
2023-04-14T12:23:55.149Z,4.80
2023-04-14T12:24:55.129Z,3.50
2023-04-14T12:25:55.103Z,3.50
2023-04-14T12:26:55.086Z,7.30
2023-04-14T12:27:57.079Z,4.80
2023-04-14T12:28:55.060Z,3.50
2023-04-14T12:29:55.048Z,3.50
2023-04-14T12:30:55.043Z,2.70
2023-04-14T12:31:55.131Z,2.70
2023-04-14T12:32:55.178Z,3.30
2023-04-14T12:33:56.343Z,4.30
2023-04-14T12:34:54.977Z,3.50
2023-04-14T12:35:54.956Z,2.90
2023-04-14T12:36:54.962Z,3.60
2023-04-14T12:37:54.957Z,3.20
2023-04-14T12:38:54.922Z,2.90
2023-04-14T12:39:54.911Z,3.00
2023-04-14T12:40:54.908Z,3.30
2023-04-14T12:41:54.897Z,1.90
2023-04-14T12:42:54.894Z,2.90
2023-04-14T12:43:54.872Z,3.50
2023-04-14T12:44:54.853Z,3.10
2023-04-14T12:45:54.824Z,2.80
2023-04-14T12:46:54.934Z,2.90
2023-04-14T12:47:54.835Z,4.00
2023-04-14T12:48:54.797Z,4.50
2023-04-14T12:49:54.779Z,4.90
2023-04-14T12:50:54.790Z,2.80
2023-04-14T12:51:54.745Z,2.90
2023-04-14T12:52:54.767Z,2.80
2023-04-14T12:53:54.722Z,4.40
2023-04-14T12:54:54.707Z,5.60
2023-04-14T12:55:54.697Z,4.80
2023-04-14T12:56:54.694Z,3.00
2023-04-14T12:57:54.687Z,3.50
2023-04-14T12:58:54.666Z,3.80
2023-04-14T12:59:54.668Z,3.30
2023-04-14T13:00:54.662Z,3.10
2023-04-14T13:01:54.682Z,3.20
2023-04-14T13:02:54.791Z,2.50
2023-04-14T13:03:54.715Z,2.50
2023-04-14T13:04:54.578Z,2.10
2023-04-14T13:05:54.566Z,2.90
2023-04-14T13:06:54.566Z,3.20
2023-04-14T13:07:54.560Z,1.30
2023-04-14T13:08:54.534Z,2.80
2023-04-14T13:09:54.520Z,4.40
2023-04-14T13:10:54.501Z,3.10
2023-04-14T13:11:54.492Z,4.40
2023-04-14T13:12:54.492Z,3.10